createdAt,value
2019-04-25T00:02:24.961Z,32.42
2019-04-25T00:04:56.526Z,32.08
2019-04-25T00:07:28.133Z,31.20
2019-04-25T00:10:01.611Z,31.48
2019-04-25T00:12:33.267Z,30.68
2019-04-25T00:15:07.096Z,30.88
2019-04-25T00:17:38.734Z,29.50
2019-04-25T00:20:11.389Z,27.58
2019-04-25T00:22:47.577Z,27.15
2019-04-25T00:25:23.652Z,25.68
2019-04-25T00:27:55.140Z,24.98
2019-04-25T00:30:28.226Z,24.87
2019-04-25T00:32:59.590Z,24.55
2019-04-25T00:35:31.588Z,23.90
2019-04-25T00:38:03.094Z,23.55
2019-04-25T00:40:34.608Z,23.25
2019-04-25T00:43:06.303Z,23.62
2019-04-25T00:45:37.757Z,23.38
2019-04-25T00:48:10.228Z,23.62
2019-04-25T00:50:43.268Z,25.52
2019-04-25T00:53:14.875Z,24.63
2019-04-25T00:55:46.467Z,24.60
2019-04-25T00:58:21.494Z,25.67
2019-04-25T01:00:57.834Z,30.82
2019-04-25T01:03:34.409Z,26.97
2019-04-25T01:06:05.925Z,34.08
2019-04-25T01:08:37.299Z,30.50
2019-04-25T01:11:08.797Z,26.68
2019-04-25T01:13:40.331Z,31.17
2019-04-25T01:16:12.077Z,33.60
2019-04-25T01:18:43.705Z,30.43
2019-04-25T01:21:15.374Z,27.98
2019-04-25T01:23:47.286Z,26.00
2019-04-25T01:26:18.688Z,27.15
2019-04-25T01:28:50.138Z,25.88
2019-04-25T01:31:23.309Z,29.75
2019-04-25T01:33:56.615Z,30.57
2019-04-25T01:36:36.027Z,31.60
2019-04-25T01:39:10.140Z,31.85
2019-04-25T01:41:44.128Z,25.85
2019-04-25T01:44:20.144Z,33.10
2019-04-25T01:46:51.874Z,35.35
2019-04-25T01:49:24.225Z,27.93
2019-04-25T01:51:57.464Z,32.20
2019-04-25T01:54:28.720Z,33.78
2019-04-25T01:57:00.482Z,27.10
2019-04-25T01:59:33.709Z,26.23
2019-04-25T02:02:07.180Z,25.43
2019-04-25T02:04:38.583Z,26.57
2019-04-25T02:07:10.275Z,24.30
2019-04-25T02:09:43.457Z,24.18
2019-04-25T02:12:20.223Z,24.90
2019-04-25T02:14:51.944Z,26.75
2019-04-25T02:17:24.169Z,26.87
2019-04-25T02:19:56.703Z,24.60
2019-04-25T02:22:28.556Z,21.42
2019-04-25T02:25:00.315Z,21.40
2019-04-25T02:27:31.919Z,20.80
2019-04-25T02:30:06.795Z,21.33
2019-04-25T02:32:37.451Z,19.35
2019-04-25T02:35:09.794Z,21.23
2019-04-25T02:37:41.433Z,20.43
2019-04-25T02:40:14.243Z,20.70
2019-04-25T02:42:45.836Z,20.85
2019-04-25T02:45:37.496Z,20.08
2019-04-25T02:48:19.622Z,20.77
2019-04-25T02:51:09.061Z,19.50
2019-04-25T02:53:44.492Z,19.82
2019-04-25T02:56:30.345Z,20.12
2019-04-25T02:58:48.994Z,19.40
2019-04-25T03:01:23.530Z,20.17
2019-04-25T03:03:54.560Z,20.92
2019-04-25T03:06:26.262Z,20.55
2019-04-25T03:08:58.187Z,20.57
2019-04-25T03:11:30.903Z,20.82
2019-04-25T03:14:02.380Z,20.82
2019-04-25T03:16:34.787Z,22.48
2019-04-25T03:19:20.223Z,22.00
2019-04-25T03:21:56.125Z,21.20
2019-04-25T03:24:27.717Z,20.50
2019-04-25T03:26:59.416Z,20.00
2019-04-25T03:29:30.964Z,18.55
2019-04-25T03:32:05.094Z,19.95
2019-04-25T03:34:35.544Z,20.15
2019-04-25T03:37:07.669Z,19.00
2019-04-25T03:39:39.180Z,18.90
2019-04-25T03:42:10.641Z,19.90
2019-04-25T03:44:43.701Z,19.65
2019-04-25T03:47:15.277Z,19.82
2019-04-25T03:49:46.729Z,19.35
2019-04-25T03:52:19.205Z,19.73
2019-04-25T03:54:50.664Z,18.65
2019-04-25T03:57:23.257Z,18.40
2019-04-25T03:59:54.987Z,18.85
2019-04-25T04:02:26.441Z,19.60
2019-04-25T04:04:57.890Z,18.90
2019-04-25T04:07:29.342Z,19.02
2019-04-25T04:10:00.895Z,18.90
2019-04-25T04:12:32.347Z,17.67
2019-04-25T04:15:07.027Z,17.70
2019-04-25T04:17:40.165Z,18.77
2019-04-25T04:20:14.691Z,19.27
2019-04-25T04:22:51.133Z,21.07
2019-04-25T04:25:23.613Z,19.57
2019-04-25T04:27:55.215Z,18.77
2019-04-25T04:30:26.672Z,19.90
2019-04-25T04:32:58.096Z,18.90
2019-04-25T04:35:29.831Z,17.73
2019-04-25T04:38:01.481Z,18.57
2019-04-25T04:40:34.440Z,18.17
2019-04-25T04:43:05.939Z,18.70
2019-04-25T04:45:37.394Z,19.37
2019-04-25T04:48:08.845Z,18.52
2019-04-25T04:50:40.301Z,19.57
2019-04-25T04:53:11.676Z,19.85
2019-04-25T04:55:43.588Z,20.70
2019-04-25T04:58:16.148Z,20.20
2019-04-25T05:00:48.192Z,21.12
2019-04-25T05:03:44.121Z,19.92
2019-04-25T05:06:24.012Z,21.40
2019-04-25T05:09:03.676Z,21.25
2019-04-25T05:11:35.144Z,21.40
2019-04-25T05:14:06.669Z,22.45
2019-04-25T05:16:38.121Z,21.23
2019-04-25T05:19:09.470Z,22.05
2019-04-25T05:21:40.973Z,22.20
2019-04-25T05:24:14.587Z,20.90
2019-04-25T05:26:46.916Z,21.68
2019-04-25T05:29:21.315Z,23.20
2019-04-25T05:31:54.256Z,23.73
2019-04-25T05:34:26.021Z,21.90
2019-04-25T05:36:57.579Z,21.95
2019-04-25T05:39:28.973Z,22.95
2019-04-25T05:42:22.520Z,22.55
2019-04-25T05:44:56.748Z,23.18
2019-04-25T05:47:29.332Z,22.37
2019-04-25T05:50:00.770Z,22.25
2019-04-25T05:52:33.768Z,22.10
2019-04-25T05:55:06.818Z,23.80
2019-04-25T05:57:47.698Z,23.35
2019-04-25T06:00:13.464Z,22.87
2019-04-25T06:02:46.211Z,23.22
2019-04-25T06:05:19.071Z,23.73
2019-04-25T06:07:50.504Z,23.70
2019-04-25T06:10:39.970Z,22.95
2019-04-25T06:13:13.781Z,22.55
2019-04-25T06:15:48.071Z,23.25
2019-04-25T06:18:21.264Z,24.25
2019-04-25T06:20:55.407Z,23.52
2019-04-25T06:23:45.750Z,23.60
2019-04-25T06:26:26.692Z,23.27
2019-04-25T06:28:57.018Z,23.07
2019-04-25T06:31:26.422Z,24.00
2019-04-25T06:36:27.379Z,23.70
2019-04-25T06:38:58.826Z,24.60
2019-04-25T06:41:30.217Z,24.63
2019-04-25T06:44:04.067Z,23.98
2019-04-25T06:46:44.117Z,23.45
2019-04-25T06:49:27.811Z,24.67
2019-04-25T06:51:59.267Z,23.18
2019-04-25T06:54:31.574Z,24.47
2019-04-25T06:59:39.538Z,25.77
2019-04-25T07:02:09.070Z,25.43
2019-04-25T07:04:40.573Z,25.20
2019-04-25T07:07:14.423Z,23.32
2019-04-25T07:09:45.504Z,25.52
2019-04-25T07:12:17.997Z,25.97
2019-04-25T07:14:50.141Z,25.08
2019-04-25T07:17:24.084Z,25.48
2019-04-25T07:19:55.918Z,25.37
2019-04-25T07:22:27.423Z,25.32
2019-04-25T07:24:58.921Z,25.45
2019-04-25T07:27:49.277Z,24.03
2019-04-25T07:30:49.017Z,24.80
2019-04-25T07:33:18.831Z,24.90
2019-04-25T07:35:50.442Z,24.55
2019-04-25T07:38:23.699Z,24.15
2019-04-25T07:40:55.139Z,25.82
2019-04-25T07:43:27.467Z,24.57
2019-04-25T07:48:30.369Z,24.43
2019-04-25T07:51:03.622Z,24.60
2019-04-25T07:56:08.350Z,22.93
2019-04-25T07:58:51.667Z,25.15
2019-04-25T08:01:15.980Z,23.42
2019-04-25T08:03:47.407Z,23.52
2019-04-25T08:06:18.871Z,23.00
2019-04-25T08:08:50.284Z,24.57
2019-04-25T08:11:21.715Z,24.57
2019-04-25T08:13:57.458Z,22.07
2019-04-25T08:16:39.830Z,23.57
2019-04-25T08:19:11.424Z,24.00
2019-04-25T08:21:43.980Z,23.30
2019-04-25T08:24:16.611Z,21.57
2019-04-25T08:26:48.055Z,21.97
2019-04-25T08:29:22.938Z,20.63
2019-04-25T08:34:26.372Z,20.10
2019-04-25T08:36:57.920Z,21.50
2019-04-25T08:39:30.291Z,21.73
2019-04-25T08:42:03.475Z,23.22
2019-04-25T08:44:35.969Z,20.62
2019-04-25T08:47:08.285Z,22.37
2019-04-25T08:49:43.646Z,22.45
2019-04-25T08:52:14.765Z,23.27
2019-04-25T08:54:54.660Z,23.45
2019-04-25T08:57:45.031Z,25.48
2019-04-25T09:00:19.193Z,24.37
2019-04-25T09:02:55.093Z,24.50
2019-04-25T09:05:28.324Z,19.87
2019-04-25T09:10:30.282Z,20.90
2019-04-25T09:13:03.188Z,23.00
2019-04-25T09:15:37.986Z,23.27
2019-04-25T09:18:09.519Z,25.43
2019-04-25T09:20:42.890Z,22.55
2019-04-25T09:25:46.097Z,22.90
2019-04-25T09:28:18.153Z,20.88
2019-04-25T09:30:49.720Z,21.02
2019-04-25T09:33:21.204Z,22.77
2019-04-25T09:35:54.089Z,23.77
2019-04-25T09:38:25.639Z,21.87
2019-04-25T09:40:57.101Z,19.70
2019-04-25T09:43:28.609Z,20.60
2019-04-25T09:46:07.600Z,20.17
2019-04-25T09:48:46.933Z,19.85
2019-04-25T09:51:20.153Z,18.48
2019-04-25T09:53:54.165Z,19.82
2019-04-25T09:56:36.634Z,19.05
2019-04-25T09:59:13.774Z,20.35
2019-04-25T10:01:46.919Z,19.62
2019-04-25T10:06:49.208Z,19.27
2019-04-25T10:09:21.005Z,19.27
2019-04-25T10:11:52.550Z,19.10
2019-04-25T10:14:37.505Z,18.02
2019-04-25T10:17:08.913Z,17.42
2019-04-25T10:19:41.173Z,17.12
2019-04-25T10:22:13.639Z,17.10
2019-04-25T10:24:58.351Z,17.15
2019-04-25T10:29:53.681Z,16.55
2019-04-25T10:34:55.040Z,15.95
2019-04-25T10:37:26.724Z,15.20
2019-04-25T10:39:58.362Z,16.12
2019-04-25T10:42:29.766Z,16.07
2019-04-25T10:45:01.116Z,16.15
2019-04-25T10:47:33.481Z,16.77
2019-04-25T10:50:08.009Z,15.78
2019-04-25T10:52:39.971Z,16.70
2019-04-25T10:55:12.162Z,15.83
2019-04-25T10:57:45.180Z,15.28
2019-04-25T11:02:56.569Z,15.70
2019-04-25T11:07:58.619Z,15.72
2019-04-25T11:10:31.132Z,17.73
2019-04-25T11:13:04.062Z,15.95
2019-04-25T11:15:35.838Z,16.77
2019-04-25T11:18:07.307Z,16.23
2019-04-25T11:20:39.157Z,16.45
2019-04-25T11:23:10.702Z,16.23
2019-04-25T11:25:43.530Z,16.27
2019-04-25T11:28:15.492Z,16.07
2019-04-25T11:30:47.812Z,17.17
2019-04-25T11:36:48.521Z,18.45
2019-04-25T11:39:21.662Z,17.37
2019-04-25T11:41:55.343Z,16.52
2019-04-25T11:44:26.735Z,15.68
2019-04-25T11:46:58.847Z,17.82
2019-04-25T11:49:30.885Z,17.48
2019-04-25T11:52:03.131Z,16.48
2019-04-25T11:54:36.357Z,16.70
2019-04-25T11:57:08.007Z,16.42
2019-04-25T11:59:39.440Z,17.05
2019-04-25T12:02:13.357Z,17.40
2019-04-25T12:04:46.423Z,17.27
2019-04-25T12:07:18.311Z,16.50
2019-04-25T12:09:50.018Z,16.80
2019-04-25T12:12:23.457Z,17.50
2019-04-25T12:17:28.392Z,16.00
2019-04-25T12:19:59.804Z,15.58
2019-04-25T12:22:31.231Z,15.55
2019-04-25T12:25:04.524Z,16.07
2019-04-25T12:30:07.273Z,15.85
2019-04-25T12:32:38.639Z,16.12
2019-04-25T12:35:09.975Z,16.62
2019-04-25T12:37:41.423Z,16.87
2019-04-25T12:40:14.135Z,17.17
2019-04-25T12:42:46.401Z,18.10
2019-04-25T12:45:25.752Z,17.35
2019-04-25T12:47:59.370Z,15.72
2019-04-25T12:50:33.549Z,16.82
2019-04-25T12:53:05.248Z,16.45
2019-04-25T12:55:36.889Z,16.48
2019-04-25T12:58:08.263Z,17.90
2019-04-25T13:00:47.953Z,18.70
2019-04-25T13:05:44.849Z,16.17
2019-04-25T13:08:16.351Z,17.35
2019-04-25T13:10:48.072Z,16.65
2019-04-25T13:13:20.099Z,15.63
2019-04-25T13:15:53.186Z,16.45
2019-04-25T13:18:24.768Z,16.07
2019-04-25T13:20:57.519Z,16.95
2019-04-25T13:25:59.898Z,22.20
2019-04-25T13:28:34.128Z,23.18
2019-04-25T13:31:12.135Z,18.37
2019-04-25T13:34:01.633Z,16.52
2019-04-25T13:36:34.651Z,16.62
2019-04-25T13:39:09.369Z,15.65
2019-04-25T13:41:43.063Z,16.60
2019-04-25T13:46:46.015Z,16.77
2019-04-25T13:49:17.453Z,16.85
2019-04-25T13:51:48.912Z,16.15
2019-04-25T13:54:20.889Z,17.52
2019-04-25T13:56:53.477Z,17.00
2019-04-25T13:59:25.639Z,17.02
2019-04-25T14:01:58.965Z,33.35
2019-04-25T14:07:03.046Z,17.62
2019-04-25T14:09:35.827Z,15.40
2019-04-25T14:12:07.981Z,16.75
2019-04-25T14:14:39.461Z,16.82
2019-04-25T14:17:13.876Z,18.95
2019-04-25T14:19:49.823Z,19.12
2019-04-25T14:22:22.231Z,19.17
2019-04-25T14:24:54.152Z,20.20
2019-04-25T14:27:26.425Z,20.95
2019-04-25T14:29:58.082Z,16.93
2019-04-25T14:32:30.137Z,16.95
2019-04-25T14:35:03.318Z,16.62
2019-04-25T14:37:39.696Z,16.35
2019-04-25T14:42:40.850Z,16.60
2019-04-25T14:45:12.589Z,15.55
2019-04-25T14:47:44.006Z,17.27
2019-04-25T14:50:16.665Z,18.62
2019-04-25T14:52:48.209Z,18.62
2019-04-25T14:55:25.398Z,17.45
2019-04-25T14:57:57.812Z,17.77
2019-04-25T15:00:40.015Z,20.00
2019-04-25T15:03:11.595Z,18.85
2019-04-25T15:05:43.566Z,18.75
2019-04-25T15:08:15.259Z,19.35
2019-04-25T15:10:48.444Z,18.12
2019-04-25T15:15:50.304Z,19.35
2019-04-25T15:18:22.411Z,18.32
2019-04-25T15:20:54.982Z,19.12
2019-04-25T15:23:27.302Z,18.12
2019-04-25T15:25:59.855Z,19.05
2019-04-25T15:28:31.267Z,20.20
2019-04-25T15:31:02.664Z,20.20
2019-04-25T15:33:34.166Z,20.57
2019-04-25T15:36:16.433Z,20.40
2019-04-25T15:38:55.267Z,22.27
2019-04-25T15:41:28.431Z,22.02
2019-04-25T15:44:09.891Z,23.65
2019-04-25T15:46:44.439Z,24.15
2019-04-25T15:51:46.428Z,21.87
2019-04-25T15:54:17.829Z,23.83
2019-04-25T15:56:49.277Z,24.85
2019-04-25T15:59:20.884Z,24.80
2019-04-25T16:01:52.360Z,24.85
2019-04-25T16:04:23.936Z,23.87
2019-04-25T16:06:55.589Z,24.05
2019-04-25T16:09:27.987Z,24.20
2019-04-25T16:11:59.440Z,24.52
2019-04-25T16:14:31.349Z,24.40
2019-04-25T16:17:03.064Z,25.32
2019-04-25T16:19:34.801Z,25.35
2019-04-25T16:22:06.472Z,24.92
2019-04-25T16:24:37.896Z,25.50
2019-04-25T16:27:09.618Z,27.90
2019-04-25T16:29:41.001Z,27.35
2019-04-25T16:32:20.401Z,26.60
2019-04-25T16:34:47.182Z,27.32
2019-04-25T16:37:18.743Z,27.42
2019-04-25T16:39:50.193Z,27.42
2019-04-25T16:42:21.701Z,27.58
2019-04-25T16:44:53.300Z,27.85
2019-04-25T16:47:26.716Z,26.75
2019-04-25T16:52:30.418Z,26.82
2019-04-25T16:55:01.782Z,27.52
2019-04-25T16:57:34.900Z,28.40
2019-04-25T17:00:09.938Z,30.08
2019-04-25T17:02:43.080Z,29.10
2019-04-25T17:05:14.727Z,33.08
2019-04-25T17:07:46.196Z,34.50
2019-04-25T17:10:18.214Z,29.57
2019-04-25T17:12:49.753Z,29.80
2019-04-25T17:15:30.496Z,30.23
2019-04-25T17:18:09.507Z,31.48
2019-04-25T17:20:45.679Z,32.83
2019-04-25T17:23:17.496Z,33.23
2019-04-25T17:25:49.019Z,31.27
2019-04-25T17:28:21.947Z,30.23
2019-04-25T17:30:57.727Z,29.52
2019-04-25T17:33:46.854Z,31.27
2019-04-25T17:36:20.078Z,29.40
2019-04-25T17:39:01.965Z,27.73
2019-04-25T17:44:05.834Z,28.47
2019-04-25T17:46:37.564Z,27.25
2019-04-25T17:49:09.215Z,28.92
2019-04-25T17:51:44.032Z,28.83
2019-04-25T17:54:18.306Z,29.52
2019-04-25T17:59:21.628Z,28.77
2019-04-25T18:01:53.750Z,28.75
2019-04-25T18:04:25.418Z,33.48
2019-04-25T18:06:57.088Z,33.50
2019-04-25T18:09:28.795Z,33.35
2019-04-25T18:12:00.453Z,34.53
2019-04-25T18:14:34.049Z,34.18
2019-04-25T18:17:06.734Z,32.93
2019-04-25T18:19:45.979Z,35.45
2019-04-25T18:22:25.097Z,34.48
2019-04-25T18:24:58.168Z,34.13
2019-04-25T18:27:31.185Z,35.05
2019-04-25T18:30:02.869Z,33.13
2019-04-25T18:32:37.046Z,33.05
2019-04-25T18:35:10.218Z,32.10
2019-04-25T18:37:52.405Z,32.80
2019-04-25T18:40:31.651Z,31.93
2019-04-25T18:43:19.846Z,32.00
2019-04-25T18:45:52.969Z,32.35
2019-04-25T18:48:24.445Z,34.98
2019-04-25T18:50:55.863Z,33.42
2019-04-25T18:53:28.969Z,34.25
2019-04-25T18:56:13.855Z,35.90
2019-04-25T18:59:04.058Z,35.17
2019-04-25T19:01:50.044Z,36.45
2019-04-25T19:04:25.844Z,35.17
2019-04-25T19:06:58.381Z,35.38
2019-04-25T19:09:30.830Z,35.08
2019-04-25T19:12:02.404Z,35.90
2019-04-25T19:14:33.976Z,33.63
2019-04-25T19:17:07.421Z,35.25
2019-04-25T19:19:39.752Z,50.92
2019-04-25T19:24:45.012Z,37.93
2019-04-25T19:27:23.512Z,35.20
2019-04-25T19:29:52.086Z,35.45
2019-04-25T19:32:23.037Z,34.08
2019-04-25T19:34:54.604Z,38.42
2019-04-25T19:37:26.276Z,37.13
2019-04-25T19:40:15.483Z,36.73
2019-04-25T19:42:48.912Z,37.15
2019-04-25T19:47:51.518Z,36.20
2019-04-25T19:50:23.069Z,37.20
2019-04-25T19:52:54.571Z,37.42
2019-04-25T19:55:25.937Z,34.15
2019-04-25T19:57:57.564Z,34.45
2019-04-25T20:00:29.146Z,35.60
2019-04-25T20:03:14.629Z,35.40
2019-04-25T20:06:04.239Z,35.23
2019-04-25T20:08:46.652Z,37.33
2019-04-25T20:11:26.025Z,39.38
2019-04-25T20:13:57.456Z,32.75
2019-04-25T20:16:30.560Z,39.85
2019-04-25T20:19:02.157Z,35.00
2019-04-25T20:21:33.668Z,34.10
2019-04-25T20:24:06.270Z,33.28
2019-04-25T20:26:39.328Z,33.23
2019-04-25T20:29:10.869Z,38.05
2019-04-25T20:31:42.231Z,42.43
2019-04-25T20:34:14.077Z,44.33
2019-04-25T20:36:46.144Z,43.63
2019-04-25T20:39:17.537Z,42.08
2019-04-25T20:41:49.750Z,43.73
2019-04-25T20:44:21.501Z,39.17
2019-04-25T20:46:53.068Z,42.62
2019-04-25T20:49:29.359Z,38.70
2019-04-25T20:52:01.082Z,39.33
2019-04-25T20:54:32.671Z,38.63
2019-04-25T20:57:04.346Z,42.35
2019-04-25T20:59:36.024Z,40.85
2019-04-25T21:02:09.357Z,40.75
2019-04-25T21:04:42.474Z,40.00
2019-04-25T21:07:13.976Z,40.05
2019-04-25T21:09:46.637Z,39.17
2019-04-25T21:12:18.113Z,41.50
2019-04-25T21:14:58.261Z,41.90
2019-04-25T21:17:31.500Z,40.40
2019-04-25T21:20:07.594Z,35.88
2019-04-25T21:22:38.966Z,37.90
2019-04-25T21:25:10.459Z,39.10
2019-04-25T21:27:41.876Z,39.73
2019-04-25T21:30:13.353Z,37.70
2019-04-25T21:32:53.325Z,38.63
2019-04-25T21:35:25.496Z,39.50
2019-04-25T21:37:57.533Z,37.03
2019-04-25T21:40:30.797Z,37.60
2019-04-25T21:43:09.899Z,36.50
2019-04-25T21:45:41.731Z,38.05
2019-04-25T21:48:13.449Z,36.80
2019-04-25T21:50:45.154Z,33.67
2019-04-25T21:53:16.552Z,37.10
2019-04-25T21:55:48.312Z,36.05
2019-04-25T21:58:20.068Z,35.23
2019-04-25T22:00:56.682Z,35.33
2019-04-25T22:03:29.796Z,37.13
2019-04-25T22:06:01.420Z,38.50
2019-04-25T22:08:32.960Z,37.93
2019-04-25T22:11:04.571Z,38.38
2019-04-25T22:13:37.063Z,39.43
2019-04-25T22:16:08.937Z,40.10
2019-04-25T22:18:40.594Z,42.33
2019-04-25T22:21:12.452Z,41.50
2019-04-25T22:23:44.383Z,42.03
2019-04-25T22:26:15.934Z,39.25
2019-04-25T22:28:47.769Z,41.35
2019-04-25T22:31:20.817Z,38.78
2019-04-25T22:34:12.045Z,39.13
2019-04-25T22:36:44.164Z,39.00
2019-04-25T22:39:15.878Z,38.98
2019-04-25T22:41:50.646Z,38.95
2019-04-25T22:44:22.338Z,39.90
2019-04-25T22:49:24.883Z,38.10
2019-04-25T22:51:56.807Z,36.88
2019-04-25T22:54:29.553Z,37.85
2019-04-25T22:57:01.787Z,33.63
2019-04-25T22:59:34.453Z,31.45
2019-04-25T23:02:10.733Z,32.05
2019-04-25T23:04:50.990Z,33.70
2019-04-25T23:07:22.499Z,32.73
2019-04-25T23:09:54.567Z,31.20
2019-04-25T23:12:26.292Z,31.40
2019-04-25T23:14:59.156Z,31.90
2019-04-25T23:17:30.593Z,30.37
2019-04-25T23:20:03.361Z,31.85
2019-04-25T23:22:35.333Z,31.25
2019-04-25T23:25:09.933Z,31.73
2019-04-25T23:27:43.028Z,30.32
2019-04-25T23:30:16.382Z,29.82
2019-04-25T23:32:47.771Z,31.87
2019-04-25T23:35:27.941Z,33.60
2019-04-25T23:37:52.271Z,31.80
2019-04-25T23:40:23.755Z,31.00
2019-04-25T23:42:55.549Z,31.05
2019-04-25T23:45:27.000Z,28.57
2019-04-25T23:47:58.422Z,29.57
2019-04-25T23:50:30.180Z,29.80
2019-04-25T23:53:01.551Z,31.12
2019-04-25T23:55:33.111Z,27.75
2019-04-25T23:58:04.641Z,25.80
